sensor_id;sensor_type;location;lat;lon;timestamp;P1;durP1;ratioP1;P2;durP2;ratioP2
31966;SDS011;18496;52.042;6.812;2022-08-21T00:00:58;9.82;;;5.28;;
31966;SDS011;18496;52.042;6.812;2022-08-21T00:03:05;11.73;;;5.93;;
31966;SDS011;18496;52.042;6.812;2022-08-21T00:05:11;19.67;;;6.10;;
31966;SDS011;18496;52.042;6.812;2022-08-21T00:07:15;8.90;;;5.32;;
31966;SDS011;18496;52.042;6.812;2022-08-21T00:09:19;14.63;;;6.50;;
31966;SDS011;18496;52.042;6.812;2022-08-21T00:11:23;12.63;;;5.82;;
31966;SDS011;18496;52.042;6.812;2022-08-21T00:13:26;10.63;;;5.55;;
31966;SDS011;18496;52.042;6.812;2022-08-21T00:15:31;16.80;;;5.97;;
31966;SDS011;18496;52.042;6.812;2022-08-21T00:17:36;10.48;;;5.70;;
31966;SDS011;18496;52.042;6.812;2022-08-21T00:19:39;11.10;;;5.95;;
31966;SDS011;18496;52.042;6.812;2022-08-21T00:21:43;13.45;;;6.38;;
31966;SDS011;18496;52.042;6.812;2022-08-21T00:23:47;11.38;;;6.10;;
31966;SDS011;18496;52.042;6.812;2022-08-21T00:25:50;10.75;;;6.07;;
31966;SDS011;18496;52.042;6.812;2022-08-21T00:27:54;12.57;;;5.20;;
31966;SDS011;18496;52.042;6.812;2022-08-21T00:29:59;11.32;;;5.82;;
31966;SDS011;18496;52.042;6.812;2022-08-21T00:32:02;8.65;;;5.35;;
31966;SDS011;18496;52.042;6.812;2022-08-21T00:34:06;13.73;;;6.15;;
31966;SDS011;18496;52.042;6.812;2022-08-21T00:36:11;11.88;;;5.57;;
31966;SDS011;18496;52.042;6.812;2022-08-21T00:38:15;11.82;;;5.97;;
31966;SDS011;18496;52.042;6.812;2022-08-21T00:40:21;15.02;;;6.03;;
31966;SDS011;18496;52.042;6.812;2022-08-21T00:42:29;10.55;;;5.68;;
31966;SDS011;18496;52.042;6.812;2022-08-21T00:44:33;18.48;;;5.72;;
31966;SDS011;18496;52.042;6.812;2022-08-21T00:46:37;14.52;;;6.15;;
31966;SDS011;18496;52.042;6.812;2022-08-21T00:48:41;17.15;;;5.72;;
31966;SDS011;18496;52.042;6.812;2022-08-21T00:50:55;11.73;;;6.38;;
31966;SDS011;18496;52.042;6.812;2022-08-21T00:53:06;17.48;;;5.70;;
31966;SDS011;18496;52.042;6.812;2022-08-21T00:55:10;12.10;;;5.25;;
31966;SDS011;18496;52.042;6.812;2022-08-21T00:57:18;11.32;;;5.93;;
31966;SDS011;18496;52.042;6.812;2022-08-21T00:59:26;15.07;;;5.83;;
31966;SDS011;18496;52.042;6.812;2022-08-21T01:01:30;12.55;;;5.50;;
31966;SDS011;18496;52.042;6.812;2022-08-21T01:03:34;9.20;;;5.55;;
31966;SDS011;18496;52.042;6.812;2022-08-21T01:05:39;13.60;;;6.15;;
31966;SDS011;18496;52.042;6.812;2022-08-21T01:07:43;12.93;;;6.32;;
31966;SDS011;18496;52.042;6.812;2022-08-21T01:09:48;10.82;;;5.50;;
31966;SDS011;18496;52.042;6.812;2022-08-21T01:11:52;10.43;;;5.80;;
31966;SDS011;18496;52.042;6.812;2022-08-21T01:13:56;15.38;;;5.38;;
31966;SDS011;18496;52.042;6.812;2022-08-21T01:16:02;12.65;;;5.93;;
31966;SDS011;18496;52.042;6.812;2022-08-21T01:18:08;16.83;;;6.05;;
31966;SDS011;18496;52.042;6.812;2022-08-21T01:20:13;10.20;;;5.05;;
31966;SDS011;18496;52.042;6.812;2022-08-21T01:22:18;10.82;;;5.50;;
31966;SDS011;18496;52.042;6.812;2022-08-21T01:24:22;11.95;;;6.03;;
31966;SDS011;18496;52.042;6.812;2022-08-21T01:26:28;12.20;;;5.97;;
31966;SDS011;18496;52.042;6.812;2022-08-21T01:28:38;10.07;;;5.55;;
31966;SDS011;18496;52.042;6.812;2022-08-21T01:30:48;18.88;;;6.55;;
31966;SDS011;18496;52.042;6.812;2022-08-21T01:32:54;14.63;;;5.93;;
31966;SDS011;18496;52.042;6.812;2022-08-21T01:34:59;12.35;;;4.90;;
31966;SDS011;18496;52.042;6.812;2022-08-21T01:37:03;10.80;;;5.20;;
31966;SDS011;18496;52.042;6.812;2022-08-21T01:39:07;11.13;;;5.57;;
31966;SDS011;18496;52.042;6.812;2022-08-21T01:41:12;18.55;;;6.25;;
31966;SDS011;18496;52.042;6.812;2022-08-21T01:43:17;11.18;;;5.68;;
31966;SDS011;18496;52.042;6.812;2022-08-21T01:45:21;11.18;;;5.45;;
31966;SDS011;18496;52.042;6.812;2022-08-21T01:47:24;11.43;;;5.78;;
31966;SDS011;18496;52.042;6.812;2022-08-21T01:49:28;13.52;;;5.35;;
31966;SDS011;18496;52.042;6.812;2022-08-21T01:51:32;9.90;;;5.40;;
31966;SDS011;18496;52.042;6.812;2022-08-21T01:53:36;13.68;;;5.35;;
31966;SDS011;18496;52.042;6.812;2022-08-21T01:55:41;12.15;;;5.43;;
31966;SDS011;18496;52.042;6.812;2022-08-21T01:57:45;10.45;;;5.90;;
31966;SDS011;18496;52.042;6.812;2022-08-21T01:59:50;11.23;;;5.72;;
31966;SDS011;18496;52.042;6.812;2022-08-21T02:01:53;11.10;;;5.10;;
31966;SDS011;18496;52.042;6.812;2022-08-21T02:03:57;9.25;;;5.43;;
31966;SDS011;18496;52.042;6.812;2022-08-21T02:06:05;13.38;;;6.30;;
31966;SDS011;18496;52.042;6.812;2022-08-21T02:08:10;11.30;;;5.47;;
31966;SDS011;18496;52.042;6.812;2022-08-21T02:10:14;9.23;;;5.70;;
31966;SDS011;18496;52.042;6.812;2022-08-21T02:12:20;10.70;;;5.97;;
31966;SDS011;18496;52.042;6.812;2022-08-21T02:14:24;9.95;;;5.72;;
31966;SDS011;18496;52.042;6.812;2022-08-21T02:16:28;10.52;;;6.10;;
31966;SDS011;18496;52.042;6.812;2022-08-21T02:18:32;12.93;;;5.47;;
31966;SDS011;18496;52.042;6.812;2022-08-21T02:20:36;11.88;;;5.95;;
31966;SDS011;18496;52.042;6.812;2022-08-21T02:22:45;8.40;;;5.28;;
31966;SDS011;18496;52.042;6.812;2022-08-21T02:24:49;9.25;;;6.00;;
31966;SDS011;18496;52.042;6.812;2022-08-21T02:26:53;9.52;;;5.25;;
31966;SDS011;18496;52.042;6.812;2022-08-21T02:28:56;9.65;;;5.43;;
31966;SDS011;18496;52.042;6.812;2022-08-21T02:31:00;9.85;;;5.55;;
31966;SDS011;18496;52.042;6.812;2022-08-21T02:33:07;12.88;;;5.95;;
31966;SDS011;18496;52.042;6.812;2022-08-21T02:35:12;7.95;;;5.45;;
31966;SDS011;18496;52.042;6.812;2022-08-21T02:37:16;11.05;;;5.47;;
31966;SDS011;18496;52.042;6.812;2022-08-21T02:39:20;10.00;;;5.57;;
31966;SDS011;18496;52.042;6.812;2022-08-21T02:41:24;10.38;;;4.88;;
31966;SDS011;18496;52.042;6.812;2022-08-21T02:43:27;12.98;;;6.40;;
31966;SDS011;18496;52.042;6.812;2022-08-21T02:45:32;12.68;;;5.88;;
31966;SDS011;18496;52.042;6.812;2022-08-21T02:47:36;10.55;;;6.00;;
31966;SDS011;18496;52.042;6.812;2022-08-21T02:49:40;10.68;;;5.65;;
31966;SDS011;18496;52.042;6.812;2022-08-21T02:51:43;10.15;;;5.30;;
31966;SDS011;18496;52.042;6.812;2022-08-21T02:53:47;11.70;;;5.97;;
31966;SDS011;18496;52.042;6.812;2022-08-21T02:55:52;12.75;;;5.95;;
31966;SDS011;18496;52.042;6.812;2022-08-21T02:57:57;9.95;;;6.00;;
31966;SDS011;18496;52.042;6.812;2022-08-21T03:00:02;9.40;;;5.93;;
31966;SDS011;18496;52.042;6.812;2022-08-21T03:02:07;13.32;;;6.13;;
31966;SDS011;18496;52.042;6.812;2022-08-21T03:04:11;9.93;;;5.93;;
31966;SDS011;18496;52.042;6.812;2022-08-21T03:06:15;10.63;;;5.43;;
31966;SDS011;18496;52.042;6.812;2022-08-21T03:08:20;8.80;;;5.22;;
31966;SDS011;18496;52.042;6.812;2022-08-21T03:10:24;13.43;;;5.88;;
31966;SDS011;18496;52.042;6.812;2022-08-21T03:12:28;18.10;;;6.85;;
31966;SDS011;18496;52.042;6.812;2022-08-21T03:14:32;9.10;;;5.60;;
31966;SDS011;18496;52.042;6.812;2022-08-21T03:16:35;12.07;;;6.07;;
31966;SDS011;18496;52.042;6.812;2022-08-21T03:18:39;10.68;;;6.10;;
31966;SDS011;18496;52.042;6.812;2022-08-21T03:20:43;9.90;;;6.00;;
31966;SDS011;18496;52.042;6.812;2022-08-21T03:22:48;12.90;;;6.78;;
31966;SDS011;18496;52.042;6.812;2022-08-21T03:24:51;15.20;;;5.45;;
31966;SDS011;18496;52.042;6.812;2022-08-21T03:26:56;10.48;;;5.93;;
31966;SDS011;18496;52.042;6.812;2022-08-21T03:28:59;14.52;;;6.05;;
31966;SDS011;18496;52.042;6.812;2022-08-21T03:31:03;8.70;;;5.72;;
31966;SDS011;18496;52.042;6.812;2022-08-21T03:33:08;9.43;;;6.38;;
31966;SDS011;18496;52.042;6.812;2022-08-21T03:35:13;13.20;;;6.15;;
31966;SDS011;18496;52.042;6.812;2022-08-21T03:37:16;9.50;;;5.65;;
31966;SDS011;18496;52.042;6.812;2022-08-21T03:39:20;13.35;;;6.63;;
31966;SDS011;18496;52.042;6.812;2022-08-21T03:41:24;12.65;;;6.38;;
31966;SDS011;18496;52.042;6.812;2022-08-21T03:43:28;15.73;;;6.55;;
31966;SDS011;18496;52.042;6.812;2022-08-21T03:45:31;13.45;;;5.68;;
31966;SDS011;18496;52.042;6.812;2022-08-21T03:47:35;15.20;;;7.30;;
31966;SDS011;18496;52.042;6.812;2022-08-21T03:49:39;13.60;;;6.30;;
31966;SDS011;18496;52.042;6.812;2022-08-21T03:51:42;9.95;;;6.05;;
31966;SDS011;18496;52.042;6.812;2022-08-21T03:53:46;8.90;;;5.78;;
31966;SDS011;18496;52.042;6.812;2022-08-21T03:55:50;9.18;;;5.78;;
31966;SDS011;18496;52.042;6.812;2022-08-21T03:57:55;12.48;;;6.18;;
31966;SDS011;18496;52.042;6.812;2022-08-21T03:59:59;11.13;;;6.28;;
31966;SDS011;18496;52.042;6.812;2022-08-21T04:02:03;12.82;;;5.95;;
31966;SDS011;18496;52.042;6.812;2022-08-21T04:04:09;10.60;;;5.88;;
31966;SDS011;18496;52.042;6.812;2022-08-21T04:06:12;13.55;;;6.28;;
31966;SDS011;18496;52.042;6.812;2022-08-21T04:08:16;14.63;;;6.07;;
31966;SDS011;18496;52.042;6.812;2022-08-21T04:10:22;14.98;;;6.72;;
31966;SDS011;18496;52.042;6.812;2022-08-21T04:12:27;11.50;;;6.40;;
31966;SDS011;18496;52.042;6.812;2022-08-21T04:14:31;10.20;;;5.80;;
31966;SDS011;18496;52.042;6.812;2022-08-21T04:16:34;20.98;;;6.97;;
31966;SDS011;18496;52.042;6.812;2022-08-21T04:18:38;14.40;;;6.05;;
31966;SDS011;18496;52.042;6.812;2022-08-21T04:20:43;17.20;;;6.80;;
31966;SDS011;18496;52.042;6.812;2022-08-21T04:22:48;13.10;;;6.63;;
31966;SDS011;18496;52.042;6.812;2022-08-21T04:24:53;13.73;;;6.65;;
31966;SDS011;18496;52.042;6.812;2022-08-21T04:26:57;13.05;;;6.57;;
31966;SDS011;18496;52.042;6.812;2022-08-21T04:29:00;10.73;;;6.45;;
31966;SDS011;18496;52.042;6.812;2022-08-21T04:31:04;11.27;;;6.65;;
31966;SDS011;18496;52.042;6.812;2022-08-21T04:33:08;10.05;;;6.78;;
31966;SDS011;18496;52.042;6.812;2022-08-21T04:35:12;17.90;;;7.28;;
31966;SDS011;18496;52.042;6.812;2022-08-21T04:37:17;10.52;;;6.35;;
31966;SDS011;18496;52.042;6.812;2022-08-21T04:39:20;14.23;;;7.13;;
31966;SDS011;18496;52.042;6.812;2022-08-21T04:41:24;16.50;;;7.32;;
31966;SDS011;18496;52.042;6.812;2022-08-21T04:43:28;12.48;;;7.25;;
31966;SDS011;18496;52.042;6.812;2022-08-21T04:45:35;10.10;;;7.00;;
31966;SDS011;18496;52.042;6.812;2022-08-21T04:47:41;9.38;;;6.60;;
31966;SDS011;18496;52.042;6.812;2022-08-21T04:49:44;16.00;;;6.97;;
31966;SDS011;18496;52.042;6.812;2022-08-21T04:51:48;14.38;;;6.65;;
31966;SDS011;18496;52.042;6.812;2022-08-21T04:53:57;12.23;;;6.03;;
31966;SDS011;18496;52.042;6.812;2022-08-21T04:56:06;11.70;;;7.18;;
31966;SDS011;18496;52.042;6.812;2022-08-21T04:58:15;13.20;;;7.15;;
31966;SDS011;18496;52.042;6.812;2022-08-21T05:00:22;15.48;;;6.95;;
31966;SDS011;18496;52.042;6.812;2022-08-21T05:02:27;13.63;;;7.28;;
31966;SDS011;18496;52.042;6.812;2022-08-21T05:04:32;11.07;;;6.88;;
31966;SDS011;18496;52.042;6.812;2022-08-21T05:06:37;13.10;;;7.63;;
31966;SDS011;18496;52.042;6.812;2022-08-21T05:08:43;10.52;;;6.63;;
31966;SDS011;18496;52.042;6.812;2022-08-21T05:10:48;18.05;;;6.97;;
31966;SDS011;18496;52.042;6.812;2022-08-21T05:12:52;17.25;;;7.25;;
31966;SDS011;18496;52.042;6.812;2022-08-21T05:14:57;10.00;;;7.40;;
31966;SDS011;18496;52.042;6.812;2022-08-21T05:17:00;11.45;;;7.13;;
31966;SDS011;18496;52.042;6.812;2022-08-21T05:19:04;13.55;;;7.50;;
31966;SDS011;18496;52.042;6.812;2022-08-21T05:21:09;11.18;;;6.65;;
31966;SDS011;18496;52.042;6.812;2022-08-21T05:23:13;12.95;;;6.93;;
31966;SDS011;18496;52.042;6.812;2022-08-21T05:25:17;10.52;;;6.80;;
31966;SDS011;18496;52.042;6.812;2022-08-21T05:27:20;14.13;;;6.95;;
31966;SDS011;18496;52.042;6.812;2022-08-21T05:29:24;10.45;;;7.13;;
31966;SDS011;18496;52.042;6.812;2022-08-21T05:31:28;11.45;;;7.38;;
31966;SDS011;18496;52.042;6.812;2022-08-21T05:33:32;9.50;;;7.28;;
31966;SDS011;18496;52.042;6.812;2022-08-21T05:35:36;15.95;;;7.43;;
31966;SDS011;18496;52.042;6.812;2022-08-21T05:37:40;10.38;;;6.40;;
31966;SDS011;18496;52.042;6.812;2022-08-21T05:39:44;11.85;;;6.95;;
31966;SDS011;18496;52.042;6.812;2022-08-21T05:41:47;15.63;;;6.93;;
31966;SDS011;18496;52.042;6.812;2022-08-21T05:43:52;18.30;;;7.72;;
31966;SDS011;18496;52.042;6.812;2022-08-21T05:45:55;11.48;;;7.25;;
31966;SDS011;18496;52.042;6.812;2022-08-21T05:48:06;19.00;;;7.28;;
31966;SDS011;18496;52.042;6.812;2022-08-21T05:50:11;15.88;;;7.60;;
31966;SDS011;18496;52.042;6.812;2022-08-21T05:52:19;14.70;;;7.35;;
31966;SDS011;18496;52.042;6.812;2022-08-21T05:54:23;14.65;;;7.63;;
31966;SDS011;18496;52.042;6.812;2022-08-21T05:56:27;13.30;;;6.78;;
31966;SDS011;18496;52.042;6.812;2022-08-21T05:58:31;12.10;;;6.95;;
31966;SDS011;18496;52.042;6.812;2022-08-21T06:00:36;10.20;;;6.30;;
31966;SDS011;18496;52.042;6.812;2022-08-21T06:02:40;9.48;;;5.40;;
31966;SDS011;18496;52.042;6.812;2022-08-21T06:04:44;13.45;;;7.18;;
31966;SDS011;18496;52.042;6.812;2022-08-21T06:06:48;10.05;;;6.60;;
31966;SDS011;18496;52.042;6.812;2022-08-21T06:08:51;19.50;;;6.65;;
31966;SDS011;18496;52.042;6.812;2022-08-21T06:10:56;11.30;;;6.60;;
31966;SDS011;18496;52.042;6.812;2022-08-21T06:13:02;14.57;;;7.18;;
31966;SDS011;18496;52.042;6.812;2022-08-21T06:15:07;12.05;;;7.30;;
31966;SDS011;18496;52.042;6.812;2022-08-21T06:17:11;12.00;;;5.60;;
31966;SDS011;18496;52.042;6.812;2022-08-21T06:19:16;15.05;;;7.10;;
31966;SDS011;18496;52.042;6.812;2022-08-21T06:21:20;15.88;;;6.55;;
31966;SDS011;18496;52.042;6.812;2022-08-21T06:23:23;13.27;;;6.72;;
31966;SDS011;18496;52.042;6.812;2022-08-21T06:25:27;10.50;;;6.10;;
31966;SDS011;18496;52.042;6.812;2022-08-21T06:27:32;14.13;;;6.22;;
31966;SDS011;18496;52.042;6.812;2022-08-21T06:29:35;15.43;;;6.70;;
31966;SDS011;18496;52.042;6.812;2022-08-21T06:31:39;16.25;;;7.10;;
31966;SDS011;18496;52.042;6.812;2022-08-21T06:33:43;8.05;;;5.30;;
31966;SDS011;18496;52.042;6.812;2022-08-21T06:35:47;11.38;;;5.90;;
31966;SDS011;18496;52.042;6.812;2022-08-21T06:37:51;11.70;;;5.97;;
31966;SDS011;18496;52.042;6.812;2022-08-21T06:39:55;13.18;;;5.95;;
31966;SDS011;18496;52.042;6.812;2022-08-21T06:41:58;11.25;;;6.05;;
31966;SDS011;18496;52.042;6.812;2022-08-21T06:44:05;9.88;;;6.25;;
31966;SDS011;18496;52.042;6.812;2022-08-21T06:46:09;10.10;;;5.55;;
31966;SDS011;18496;52.042;6.812;2022-08-21T06:48:13;10.30;;;6.40;;
31966;SDS011;18496;52.042;6.812;2022-08-21T06:50:16;10.80;;;6.38;;
31966;SDS011;18496;52.042;6.812;2022-08-21T06:52:20;15.68;;;7.07;;
31966;SDS011;18496;52.042;6.812;2022-08-21T06:54:23;13.13;;;6.63;;
31966;SDS011;18496;52.042;6.812;2022-08-21T06:56:27;15.10;;;7.18;;
31966;SDS011;18496;52.042;6.812;2022-08-21T06:58:31;15.07;;;7.15;;
31966;SDS011;18496;52.042;6.812;2022-08-21T07:00:35;9.88;;;6.55;;
31966;SDS011;18496;52.042;6.812;2022-08-21T07:02:43;15.27;;;6.47;;
31966;SDS011;18496;52.042;6.812;2022-08-21T07:04:46;16.10;;;7.32;;
31966;SDS011;18496;52.042;6.812;2022-08-21T07:06:50;18.27;;;7.78;;
31966;SDS011;18496;52.042;6.812;2022-08-21T07:08:54;13.45;;;7.07;;
31966;SDS011;18496;52.042;6.812;2022-08-21T07:10:59;13.18;;;6.82;;
31966;SDS011;18496;52.042;6.812;2022-08-21T07:13:04;8.32;;;6.28;;
31966;SDS011;18496;52.042;6.812;2022-08-21T07:15:08;14.98;;;6.88;;
31966;SDS011;18496;52.042;6.812;2022-08-21T07:17:12;13.10;;;7.15;;
31966;SDS011;18496;52.042;6.812;2022-08-21T07:19:16;17.75;;;7.57;;
31966;SDS011;18496;52.042;6.812;2022-08-21T07:21:19;14.07;;;7.40;;
31966;SDS011;18496;52.042;6.812;2022-08-21T07:23:32;13.98;;;6.80;;
31966;SDS011;18496;52.042;6.812;2022-08-21T07:25:42;16.13;;;7.32;;
31966;SDS011;18496;52.042;6.812;2022-08-21T07:27:46;14.93;;;7.10;;
31966;SDS011;18496;52.042;6.812;2022-08-21T07:29:49;16.25;;;6.50;;
31966;SDS011;18496;52.042;6.812;2022-08-21T07:31:53;16.20;;;6.18;;
31966;SDS011;18496;52.042;6.812;2022-08-21T07:33:57;12.50;;;5.68;;
31966;SDS011;18496;52.042;6.812;2022-08-21T07:36:01;21.25;;;6.10;;
31966;SDS011;18496;52.042;6.812;2022-08-21T07:38:05;13.90;;;6.00;;
31966;SDS011;18496;52.042;6.812;2022-08-21T07:40:09;11.27;;;5.28;;
31966;SDS011;18496;52.042;6.812;2022-08-21T07:42:13;12.88;;;5.50;;
31966;SDS011;18496;52.042;6.812;2022-08-21T07:44:16;18.67;;;6.40;;
31966;SDS011;18496;52.042;6.812;2022-08-21T07:46:20;14.85;;;6.20;;
31966;SDS011;18496;52.042;6.812;2022-08-21T07:48:24;14.25;;;6.43;;
31966;SDS011;18496;52.042;6.812;2022-08-21T07:50:27;12.05;;;5.88;;
31966;SDS011;18496;52.042;6.812;2022-08-21T07:52:31;14.88;;;5.72;;
31966;SDS011;18496;52.042;6.812;2022-08-21T07:54:35;15.35;;;6.13;;
31966;SDS011;18496;52.042;6.812;2022-08-21T07:56:39;12.35;;;5.47;;
31966;SDS011;18496;52.042;6.812;2022-08-21T07:58:42;13.68;;;6.47;;
31966;SDS011;18496;52.042;6.812;2022-08-21T08:00:46;21.15;;;6.43;;
31966;SDS011;18496;52.042;6.812;2022-08-21T08:02:50;10.25;;;5.60;;
31966;SDS011;18496;52.042;6.812;2022-08-21T08:04:58;14.30;;;5.82;;
31966;SDS011;18496;52.042;6.812;2022-08-21T08:07:03;9.35;;;5.32;;
31966;SDS011;18496;52.042;6.812;2022-08-21T08:09:07;9.02;;;5.20;;
31966;SDS011;18496;52.042;6.812;2022-08-21T08:11:11;12.13;;;6.13;;
31966;SDS011;18496;52.042;6.812;2022-08-21T08:13:18;8.73;;;5.28;;
31966;SDS011;18496;52.042;6.812;2022-08-21T08:15:24;18.83;;;7.07;;
31966;SDS011;18496;52.042;6.812;2022-08-21T08:17:29;14.93;;;6.50;;
31966;SDS011;18496;52.042;6.812;2022-08-21T08:19:35;13.65;;;5.55;;
31966;SDS011;18496;52.042;6.812;2022-08-21T08:21:38;15.13;;;5.22;;
31966;SDS011;18496;52.042;6.812;2022-08-21T08:23:42;13.77;;;6.30;;
31966;SDS011;18496;52.042;6.812;2022-08-21T08:25:48;13.27;;;5.53;;
31966;SDS011;18496;52.042;6.812;2022-08-21T08:27:51;11.25;;;6.07;;
31966;SDS011;18496;52.042;6.812;2022-08-21T08:29:55;13.23;;;6.97;;
31966;SDS011;18496;52.042;6.812;2022-08-21T08:31:59;10.95;;;5.80;;
31966;SDS011;18496;52.042;6.812;2022-08-21T08:34:02;10.32;;;5.13;;
31966;SDS011;18496;52.042;6.812;2022-08-21T08:36:11;11.82;;;6.13;;
31966;SDS011;18496;52.042;6.812;2022-08-21T08:38:17;20.15;;;6.25;;
31966;SDS011;18496;52.042;6.812;2022-08-21T08:40:39;14.55;;;5.47;;
31966;SDS011;18496;52.042;6.812;2022-08-21T08:42:48;11.27;;;4.68;;
31966;SDS011;18496;52.042;6.812;2022-08-21T08:47:06;10.38;;;4.60;;
31966;SDS011;18496;52.042;6.812;2022-08-21T08:49:13;7.93;;;3.50;;
31966;SDS011;18496;52.042;6.812;2022-08-21T08:53:59;9.98;;;3.10;;
31966;SDS011;18496;52.042;6.812;2022-08-21T08:56:06;7.88;;;3.88;;
31966;SDS011;18496;52.042;6.812;2022-08-21T08:58:12;10.15;;;4.05;;
31966;SDS011;18496;52.042;6.812;2022-08-21T09:00:26;6.07;;;3.35;;
31966;SDS011;18496;52.042;6.812;2022-08-21T09:02:30;12.20;;;3.97;;
31966;SDS011;18496;52.042;6.812;2022-08-21T09:04:33;7.65;;;2.85;;
31966;SDS011;18496;52.042;6.812;2022-08-21T09:06:48;8.00;;;3.10;;
31966;SDS011;18496;52.042;6.812;2022-08-21T09:11:28;6.45;;;2.65;;
31966;SDS011;18496;52.042;6.812;2022-08-21T09:18:34;6.50;;;3.38;;
31966;SDS011;18496;52.042;6.812;2022-08-21T09:25:42;8.02;;;3.15;;
31966;SDS011;18496;52.042;6.812;2022-08-21T09:27:58;9.90;;;3.05;;
31966;SDS011;18496;52.042;6.812;2022-08-21T09:30:03;11.48;;;3.05;;
31966;SDS011;18496;52.042;6.812;2022-08-21T09:32:15;5.90;;;2.47;;
31966;SDS011;18496;52.042;6.812;2022-08-21T09:34:27;8.20;;;2.75;;
31966;SDS011;18496;52.042;6.812;2022-08-21T09:38:51;4.20;;;2.10;;
31966;SDS011;18496;52.042;6.812;2022-08-21T09:41:07;7.32;;;2.03;;
31966;SDS011;18496;52.042;6.812;2022-08-21T09:43:20;9.98;;;2.80;;
31966;SDS011;18496;52.042;6.812;2022-08-21T09:45:25;7.88;;;2.78;;
31966;SDS011;18496;52.042;6.812;2022-08-21T09:47:30;9.35;;;2.40;;
31966;SDS011;18496;52.042;6.812;2022-08-21T09:49:38;5.95;;;2.60;;
31966;SDS011;18496;52.042;6.812;2022-08-21T09:51:49;5.88;;;1.92;;
31966;SDS011;18496;52.042;6.812;2022-08-21T09:56:21;6.22;;;1.77;;
31966;SDS011;18496;52.042;6.812;2022-08-21T09:59:14;6.00;;;2.20;;
31966;SDS011;18496;52.042;6.812;2022-08-21T10:01:27;9.57;;;2.10;;
31966;SDS011;18496;52.042;6.812;2022-08-21T10:03:30;6.20;;;2.03;;
31966;SDS011;18496;52.042;6.812;2022-08-21T10:05:34;4.15;;;1.58;;
31966;SDS011;18496;52.042;6.812;2022-08-21T10:07:39;4.40;;;2.00;;
31966;SDS011;18496;52.042;6.812;2022-08-21T10:09:57;6.93;;;1.95;;
31966;SDS011;18496;52.042;6.812;2022-08-21T10:12:20;2.38;;;1.63;;
31966;SDS011;18496;52.042;6.812;2022-08-21T10:14:31;8.07;;;2.10;;
31966;SDS011;18496;52.042;6.812;2022-08-21T10:19:02;2.75;;;1.77;;
31966;SDS011;18496;52.042;6.812;2022-08-21T10:23:50;6.47;;;1.83;;
31966;SDS011;18496;52.042;6.812;2022-08-21T10:33:23;4.10;;;1.77;;
31966;SDS011;18496;52.042;6.812;2022-08-21T10:35:52;6.28;;;1.92;;
31966;SDS011;18496;52.042;6.812;2022-08-21T10:38:05;5.97;;;1.75;;
31966;SDS011;18496;52.042;6.812;2022-08-21T10:40:29;4.72;;;1.50;;
31966;SDS011;18496;52.042;6.812;2022-08-21T10:48:06;4.78;;;1.67;;
31966;SDS011;18496;52.042;6.812;2022-08-21T10:50:39;4.45;;;1.45;;
31966;SDS011;18496;52.042;6.812;2022-08-21T10:52:58;5.45;;;2.05;;
31966;SDS011;18496;52.042;6.812;2022-08-21T10:57:33;4.05;;;1.90;;
31966;SDS011;18496;52.042;6.812;2022-08-21T11:00:14;6.97;;;1.85;;
31966;SDS011;18496;52.042;6.812;2022-08-21T11:02:28;3.00;;;1.65;;
31966;SDS011;18496;52.042;6.812;2022-08-21T11:04:48;3.53;;;1.65;;
31966;SDS011;18496;52.042;6.812;2022-08-21T11:07:12;5.22;;;1.85;;
31966;SDS011;18496;52.042;6.812;2022-08-21T11:09:25;10.63;;;1.83;;
31966;SDS011;18496;52.042;6.812;2022-08-21T11:11:31;5.97;;;2.80;;
31966;SDS011;18496;52.042;6.812;2022-08-21T11:13:44;4.82;;;1.90;;
31966;SDS011;18496;52.042;6.812;2022-08-21T11:15:53;11.80;;;2.13;;
31966;SDS011;18496;52.042;6.812;2022-08-21T11:18:10;9.32;;;2.70;;
31966;SDS011;18496;52.042;6.812;2022-08-21T11:20:20;4.82;;;2.63;;
31966;SDS011;18496;52.042;6.812;2022-08-21T11:25:23;7.18;;;2.50;;
31966;SDS011;18496;52.042;6.812;2022-08-21T11:29:37;8.55;;;2.63;;
31966;SDS011;18496;52.042;6.812;2022-08-21T11:34:20;10.15;;;2.30;;
31966;SDS011;18496;52.042;6.812;2022-08-21T11:36:38;4.18;;;2.00;;
31966;SDS011;18496;52.042;6.812;2022-08-21T11:43:25;6.10;;;2.20;;
31966;SDS011;18496;52.042;6.812;2022-08-21T11:45:35;4.25;;;2.20;;
31966;SDS011;18496;52.042;6.812;2022-08-21T11:47:54;14.57;;;2.92;;
31966;SDS011;18496;52.042;6.812;2022-08-21T11:50:31;10.30;;;2.83;;
31966;SDS011;18496;52.042;6.812;2022-08-21T11:52:39;5.43;;;2.50;;
31966;SDS011;18496;52.042;6.812;2022-08-21T11:54:52;8.40;;;2.42;;
31966;SDS011;18496;52.042;6.812;2022-08-21T11:57:02;7.20;;;2.50;;
31966;SDS011;18496;52.042;6.812;2022-08-21T11:59:12;7.38;;;2.53;;
31966;SDS011;18496;52.042;6.812;2022-08-21T12:01:29;9.07;;;2.65;;
31966;SDS011;18496;52.042;6.812;2022-08-21T12:04:26;11.80;;;2.92;;
31966;SDS011;18496;52.042;6.812;2022-08-21T12:06:11;6.10;;;2.08;;
31966;SDS011;18496;52.042;6.812;2022-08-21T12:08:39;5.38;;;2.58;;
31966;SDS011;18496;52.042;6.812;2022-08-21T12:10:47;7.63;;;2.00;;
31966;SDS011;18496;52.042;6.812;2022-08-21T12:13:11;7.03;;;2.33;;
31966;SDS011;18496;52.042;6.812;2022-08-21T12:15:26;9.85;;;2.30;;
31966;SDS011;18496;52.042;6.812;2022-08-21T12:17:38;6.82;;;2.05;;
31966;SDS011;18496;52.042;6.812;2022-08-21T12:19:42;6.55;;;2.10;;
31966;SDS011;18496;52.042;6.812;2022-08-21T12:24:15;7.93;;;2.30;;
31966;SDS011;18496;52.042;6.812;2022-08-21T12:26:23;8.55;;;2.13;;
31966;SDS011;18496;52.042;6.812;2022-08-21T12:28:30;6.28;;;1.90;;
31966;SDS011;18496;52.042;6.812;2022-08-21T12:30:36;7.22;;;2.10;;
31966;SDS011;18496;52.042;6.812;2022-08-21T12:34:57;2.80;;;1.58;;
31966;SDS011;18496;52.042;6.812;2022-08-21T12:37:15;3.83;;;1.83;;
31966;SDS011;18496;52.042;6.812;2022-08-21T12:39:23;10.52;;;2.47;;
31966;SDS011;18496;52.042;6.812;2022-08-21T12:41:34;7.43;;;2.15;;
31966;SDS011;18496;52.042;6.812;2022-08-21T12:43:51;10.43;;;1.95;;
31966;SDS011;18496;52.042;6.812;2022-08-21T12:45:59;6.20;;;2.58;;
31966;SDS011;18496;52.042;6.812;2022-08-21T12:48:09;9.07;;;2.08;;
31966;SDS011;18496;52.042;6.812;2022-08-21T12:52:54;9.05;;;2.13;;
31966;SDS011;18496;52.042;6.812;2022-08-21T12:55:03;7.10;;;1.88;;
31966;SDS011;18496;52.042;6.812;2022-08-21T12:57:17;5.22;;;1.95;;
31966;SDS011;18496;52.042;6.812;2022-08-21T12:59:23;6.82;;;1.77;;
31966;SDS011;18496;52.042;6.812;2022-08-21T13:01:34;5.20;;;2.22;;
31966;SDS011;18496;52.042;6.812;2022-08-21T13:03:41;4.70;;;1.85;;
31966;SDS011;18496;52.042;6.812;2022-08-21T13:05:45;7.47;;;2.10;;
31966;SDS011;18496;52.042;6.812;2022-08-21T13:07:49;5.53;;;1.85;;
31966;SDS011;18496;52.042;6.812;2022-08-21T13:09:58;8.00;;;1.90;;
31966;SDS011;18496;52.042;6.812;2022-08-21T13:12:06;3.72;;;1.60;;
31966;SDS011;18496;52.042;6.812;2022-08-21T13:14:23;5.68;;;1.73;;
31966;SDS011;18496;52.042;6.812;2022-08-21T13:16:32;6.07;;;1.97;;
31966;SDS011;18496;52.042;6.812;2022-08-21T13:18:36;8.40;;;1.85;;
31966;SDS011;18496;52.042;6.812;2022-08-21T13:21:10;5.30;;;1.73;;
31966;SDS011;18496;52.042;6.812;2022-08-21T13:25:25;8.75;;;1.75;;
31966;SDS011;18496;52.042;6.812;2022-08-21T13:27:32;4.55;;;1.92;;
31966;SDS011;18496;52.042;6.812;2022-08-21T13:29:37;5.75;;;1.60;;
31966;SDS011;18496;52.042;6.812;2022-08-21T13:31:41;6.82;;;1.83;;
31966;SDS011;18496;52.042;6.812;2022-08-21T13:33:50;8.05;;;1.60;;
31966;SDS011;18496;52.042;6.812;2022-08-21T13:38:05;3.85;;;1.52;;
31966;SDS011;18496;52.042;6.812;2022-08-21T13:40:15;6.07;;;1.23;;
31966;SDS011;18496;52.042;6.812;2022-08-21T13:42:23;4.25;;;2.00;;